sensor_id;sensor_type;location;lat;lon;timestamp;temperature;humidity
7476;DHT22;3779;49.216;8.650;2023-05-29T13:28:41;23.50;44.20
7476;DHT22;3779;49.216;8.650;2023-05-29T13:31:27;23.40;44.80
7476;DHT22;3779;49.216;8.650;2023-05-29T13:45:30;23.50;44.60
7476;DHT22;3779;49.216;8.650;2023-05-29T13:48:32;23.60;44.20
7476;DHT22;3779;49.216;8.650;2023-05-29T13:51:28;23.70;43.50
7476;DHT22;3779;49.216;8.650;2023-05-29T13:54:06;23.60;44.00
7476;DHT22;3779;49.216;8.650;2023-05-29T13:56:53;23.60;44.60
7476;DHT22;3779;49.216;8.650;2023-05-29T13:59:43;23.60;44.50
7476;DHT22;3779;49.216;8.650;2023-05-29T14:02:31;23.60;44.60
7476;DHT22;3779;49.216;8.650;2023-05-29T14:05:17;23.60;44.20
7476;DHT22;3779;49.216;8.650;2023-05-29T14:08:05;23.70;44.10
7476;DHT22;3779;49.216;8.650;2023-05-29T14:10:51;23.60;44.00
7476;DHT22;3779;49.216;8.650;2023-05-29T14:13:36;23.70;44.00
7476;DHT22;3779;49.216;8.650;2023-05-29T14:16:22;23.70;44.30
7476;DHT22;3779;49.216;8.650;2023-05-29T14:19:12;23.60;44.40
7476;DHT22;3779;49.216;8.650;2023-05-29T14:21:58;23.60;44.70
7476;DHT22;3779;49.216;8.650;2023-05-29T14:24:55;23.70;44.70
7476;DHT22;3779;49.216;8.650;2023-05-29T14:27:43;23.60;44.60
7476;DHT22;3779;49.216;8.650;2023-05-29T14:30:30;23.70;44.20
7476;DHT22;3779;49.216;8.650;2023-05-29T14:33:17;23.70;43.00
7476;DHT22;3779;49.216;8.650;2023-05-29T14:36:04;23.60;44.40
7476;DHT22;3779;49.216;8.650;2023-05-29T14:38:50;23.60;44.40
7476;DHT22;3779;49.216;8.650;2023-05-29T14:41:37;23.60;44.30
7476;DHT22;3779;49.216;8.650;2023-05-29T14:48:11;23.70;44.00
7476;DHT22;3779;49.216;8.650;2023-05-29T14:50:57;23.80;44.50
7476;DHT22;3779;49.216;8.650;2023-05-29T14:53:43;23.60;44.60
7476;DHT22;3779;49.216;8.650;2023-05-29T15:02:03;23.70;41.10
7476;DHT22;3779;49.216;8.650;2023-05-29T15:04:55;23.80;42.30
7476;DHT22;3779;49.216;8.650;2023-05-29T15:07:41;23.80;44.30
7476;DHT22;3779;49.216;8.650;2023-05-29T15:10:28;23.70;42.80
7476;DHT22;3779;49.216;8.650;2023-05-29T15:13:14;23.80;43.50
7476;DHT22;3779;49.216;8.650;2023-05-29T15:16:00;23.80;43.50
7476;DHT22;3779;49.216;8.650;2023-05-29T15:18:50;23.90;40.70
7476;DHT22;3779;49.216;8.650;2023-05-29T15:21:36;24.00;41.30
7476;DHT22;3779;49.216;8.650;2023-05-29T15:24:22;24.10;41.90
7476;DHT22;3779;49.216;8.650;2023-05-29T15:27:10;24.10;42.50
7476;DHT22;3779;49.216;8.650;2023-05-29T15:32:45;24.00;42.30
7476;DHT22;3779;49.216;8.650;2023-05-29T15:35:32;24.20;40.90
7476;DHT22;3779;49.216;8.650;2023-05-29T15:38:18;24.30;41.00
7476;DHT22;3779;49.216;8.650;2023-05-29T15:41:04;24.20;37.90
7476;DHT22;3779;49.216;8.650;2023-05-29T15:43:50;24.20;40.30
7476;DHT22;3779;49.216;8.650;2023-05-29T15:46:36;24.10;38.00
7476;DHT22;3779;49.216;8.650;2023-05-29T15:49:22;24.30;38.90
7476;DHT22;3779;49.216;8.650;2023-05-29T15:52:08;24.30;39.40
7476;DHT22;3779;49.216;8.650;2023-05-29T22:41:26;23.80;45.90
7476;DHT22;3779;49.216;8.650;2023-05-29T23:05:34;23.80;45.10
7476;DHT22;3779;49.216;8.650;2023-05-29T23:08:20;23.80;44.90
7476;DHT22;3779;49.216;8.650;2023-05-29T23:17:09;23.90;44.80
7476;DHT22;3779;49.216;8.650;2023-05-29T23:49:43;23.90;44.80
7476;DHT22;3779;49.216;8.650;2023-05-29T23:58:07;23.90;45.00
